Blue Ridge Observed Data For Previous 48 Hours

Caption
Day and Hour Reservoir Elevation (behind dam)* Tailwater Elevation (below dam)* Average Hourly Discharge*
11/17/2017 2 AM EST 1,672.52 1,540.65 146
11/17/2017 3 AM EST 1,672.52 1,540.65 146
11/17/2017 4 AM EST 1,672.56 1,540.65 146
11/17/2017 5 AM EST 1,672.52 1,541.18 347
11/17/2017 6 AM EST 1,672.49 1,543.18 1,545
11/17/2017 7 AM EST 1,672.44 1,543.22 1,545
11/17/2017 8 AM EST 1,672.42 1,543.23 1,544
11/17/2017 9 AM EST 1,672.38 1,543.23 1,545
11/17/2017 10 AM EST 1,672.37 1,543.23 1,541
11/17/2017 11 AM EST 1,672.33 1,543.20 1,535
11/17/2017 12 PM EST 1,672.22 1,540.76 239
11/17/2017 1 PM EST 1,672.25 1,540.66 146
11/17/2017 2 PM EST 1,672.25 1,540.65 146
11/17/2017 3 PM EST 1,672.25 1,540.65 146
11/17/2017 4 PM EST 1,672.26 1,540.65 146
11/17/2017 5 PM EST 1,672.26 1,540.60 146
11/17/2017 6 PM EST 1,672.24 1,543.10 1,480
11/17/2017 7 PM EST 1,672.22 1,543.16 1,524
11/17/2017 8 PM EST 1,672.15 1,543.18 1,523
11/17/2017 9 PM EST 1,672.20 1,540.76 252
11/17/2017 10 PM EST 1,672.26 1,540.66 146
11/17/2017 11 PM EST 1,672.22 1,540.65 146
11/18/2017 12 AM EST 1,672.19 1,540.65 146
11/18/2017 1 AM EST 1,672.20 1,540.65 146
11/18/2017 2 AM EST 1,672.19 1,540.65 146
11/18/2017 3 AM EST 1,672.22 1,540.65 146
11/18/2017 4 AM EST 1,672.24 1,540.65 146
11/18/2017 5 AM EST 1,672.21 1,540.61 146
11/18/2017 6 AM EST 1,672.20 1,543.10 1,471
11/18/2017 7 AM EST 1,672.17 1,543.20 1,536
11/18/2017 8 AM EST 1,672.13 1,543.18 1,532
11/18/2017 9 AM EST 1,672.10 1,543.19 1,535
11/18/2017 10 AM EST 1,672.05 1,543.19 1,530
11/18/2017 11 AM EST 1,672.04 1,540.75 232
11/18/2017 12 PM EST 1,672.06 1,540.65 146
11/18/2017 1 PM EST 1,672.04 1,540.65 146
11/18/2017 2 PM EST 1,672.07 1,540.65 146
11/18/2017 3 PM EST 1,672.08 1,540.65 146
11/18/2017 4 PM EST 1,672.06 1,540.65 146
11/18/2017 5 PM EST 1,672.06 1,540.60 146
11/18/2017 6 PM EST 1,672.02 1,543.11 1,486
11/18/2017 7 PM EST 1,672.02 1,543.18 1,529
11/18/2017 8 PM EST 1,671.96 1,543.18 1,528
11/18/2017 9 PM EST 1,671.91 1,543.21 1,534
11/18/2017 10 PM EST 1,671.97 1,543.23 1,532
11/18/2017 11 PM EST 1,672.01 1,540.77 227
11/19/2017 12 AM EST 1,671.99 1,540.66 146
11/19/2017 1 AM EST 1,672.01 1,540.66 146
11/19/2017 2 AM EST 1,672.02 1,540.66 146
11/19/2017 3 AM EST 1,672.04 1,540.66 146

Elevations are in feet above sea level. Discharges are in cubic feet per second and are reported at the end of the hour.